Time;durP1;ratioP1;P1;durP2;ratioP2;P2;SDS_P1;SDS_P2;PMS_P1;PMS_P2;Temp;Humidity;BMP_temperature;BMP_pressure;BME280_temperature;BME280_humidity;BME280_pressure;Samples;Min_cycle;Max_cycle;Signal;HPM_P1;HPM_P2
2023/03/13 00:00:51;;;;;;;22.27;6.90;;;9.70;99.90;;;;;;5052525;28;20289;-77
2023/03/13 00:03:18;;;;;;;25.50;9.20;;;9.70;99.90;;;;;;5053128;28;20605;-80
2023/03/13 00:05:45;;;;;;;31.00;7.37;;;9.70;99.90;;;;;;5052359;28;20213;-77
2023/03/13 00:08:12;;;;;;;30.40;7.93;;;9.70;99.90;;;;;;5052701;28;20218;-78
2023/03/13 00:10:39;;;;;;;25.10;6.93;;;9.70;99.90;;;;;;5052578;28;20647;-79
2023/03/13 00:13:07;;;;;;;32.57;7.77;;;9.70;99.90;;;;;;5052414;28;20204;-77
2023/03/13 00:15:34;;;;;;;30.60;7.63;;;9.60;99.90;;;;;;5052622;28;20200;-76
2023/03/13 00:18:03;;;;;;;24.77;6.80;;;9.60;99.90;;;;;;5053025;28;20251;-80
2023/03/13 00:20:30;;;;;;;27.30;7.73;;;9.60;99.90;;;;;;5051869;28;20218;-76
2023/03/13 00:22:57;;;;;;;24.43;6.93;;;9.60;99.90;;;;;;5052381;28;20524;-76
2023/03/13 00:25:23;;;;;;;28.13;8.20;;;9.60;99.90;;;;;;5052329;28;20236;-78
2023/03/13 00:27:50;;;;;;;22.10;6.50;;;9.60;99.90;;;;;;5051995;28;20479;-80
2023/03/13 00:30:18;;;;;;;26.43;7.37;;;9.70;99.90;;;;;;5052144;28;20241;-79
2023/03/13 00:32:47;;;;;;;24.40;7.90;;;9.70;99.90;;;;;;5052302;28;20237;-80
2023/03/13 00:35:16;;;;;;;27.40;8.43;;;9.70;99.90;;;;;;5051452;28;20234;-78
2023/03/13 00:37:43;;;;;;;25.30;7.67;;;9.70;99.90;;;;;;5052573;28;20290;-76
2023/03/13 00:40:11;;;;;;;14.03;6.60;;;9.60;99.90;;;;;;5052395;28;20230;-77
2023/03/13 00:42:38;;;;;;;19.80;6.43;;;9.70;99.90;;;;;;5051777;28;20296;-76
2023/03/13 00:45:06;;;;;;;20.67;7.30;;;9.70;99.90;;;;;;5052166;28;20236;-76
2023/03/13 00:47:33;;;;;;;16.77;7.53;;;9.70;99.90;;;;;;5052028;28;20300;-78
2023/03/13 00:50:00;;;;;;;17.70;6.97;;;9.80;99.90;;;;;;5051551;28;20225;-76
2023/03/13 00:52:28;;;;;;;16.70;6.57;;;9.90;99.90;;;;;;5051571;28;20814;-78
2023/03/13 00:54:55;;;;;;;16.37;7.40;;;9.90;99.90;;;;;;5051709;28;20700;-77
2023/03/13 00:57:22;;;;;;;18.33;7.47;;;9.90;99.90;;;;;;5051509;28;20689;-76
2023/03/13 00:59:49;;;;;;;12.33;6.10;;;9.90;99.90;;;;;;5052092;28;20252;-76
2023/03/13 01:02:17;;;;;;;15.37;6.13;;;9.90;99.90;;;;;;5051678;28;20202;-76
2023/03/13 01:04:44;;;;;;;15.53;6.47;;;9.90;99.90;;;;;;5051783;28;20606;-78
2023/03/13 01:07:11;;;;;;;16.00;7.60;;;9.90;99.90;;;;;;5051798;28;20204;-79
2023/03/13 01:09:39;;;;;;;15.37;7.23;;;10.00;99.90;;;;;;5050832;28;20756;-77
2023/03/13 01:12:06;;;;;;;10.93;7.20;;;10.00;99.90;;;;;;5052192;28;20297;-78
2023/03/13 01:14:33;;;;;;;13.87;7.87;;;10.00;99.90;;;;;;5051434;28;20577;-75
2023/03/13 01:17:00;;;;;;;17.07;8.40;;;10.00;99.90;;;;;;5051006;28;20225;-75
2023/03/13 01:19:27;;;;;;;9.77;7.60;;;10.10;99.90;;;;;;5050875;28;20226;-75
2023/03/13 01:21:54;;;;;;;13.27;8.20;;;10.10;99.90;;;;;;5051693;28;20202;-80
2023/03/13 01:24:21;;;;;;;11.20;8.37;;;10.10;99.90;;;;;;5051028;28;20224;-79
2023/03/13 01:26:49;;;;;;;10.53;8.40;;;10.10;99.90;;;;;;5052217;28;20536;-80
2023/03/13 01:29:16;;;;;;;12.17;7.53;;;10.20;99.90;;;;;;5052055;28;20593;-79
2023/03/13 01:31:43;;;;;;;12.47;7.30;;;10.20;99.90;;;;;;5051628;28;20318;-80
2023/03/13 01:34:11;;;;;;;9.53;7.43;;;10.30;99.90;;;;;;5051943;28;20245;-80
2023/03/13 01:36:38;;;;;;;12.03;7.47;;;10.30;99.90;;;;;;5051967;28;20287;-79
2023/03/13 01:39:06;;;;;;;10.73;7.90;;;10.40;99.90;;;;;;5051410;28;20313;-79
2023/03/13 01:41:33;;;;;;;12.20;7.90;;;10.40;99.90;;;;;;5052416;28;20202;-81
2023/03/13 01:44:01;;;;;;;12.67;8.37;;;10.50;99.90;;;;;;5051190;28;20293;-81
2023/03/13 01:46:29;;;;;;;18.33;8.10;;;10.60;99.90;;;;;;5051913;28;20292;-81
2023/03/13 01:49:02;;;;;;;11.57;8.37;;;10.70;99.90;;;;;;5051646;28;20228;-79
2023/03/13 01:51:32;;;;;;;13.03;8.20;;;10.70;99.90;;;;;;5051234;28;20305;-79
2023/03/13 01:54:04;;;;;;;16.03;9.07;;;10.80;99.90;;;;;;5051627;28;20285;-79
2023/03/13 01:56:37;;;;;;;18.77;9.37;;;10.90;99.90;;;;;;5051443;28;20221;-81
2023/03/13 01:59:09;;;;;;;14.43;8.53;;;10.90;99.90;;;;;;5051094;28;20273;-76
2023/03/13 02:01:37;;;;;;;15.63;8.90;;;11.00;99.90;;;;;;5051641;28;20217;-75
2023/03/13 02:04:05;;;;;;;19.33;9.83;;;11.00;99.90;;;;;;5051801;28;20293;-79
2023/03/13 02:06:35;;;;;;;14.57;8.33;;;11.10;99.90;;;;;;5051183;28;20262;-77
2023/03/13 02:09:07;;;;;;;14.20;8.70;;;11.10;99.90;;;;;;5051245;28;20313;-74
2023/03/13 02:11:43;;;;;;;16.03;9.03;;;11.10;99.90;;;;;;5051314;28;20297;-75
2023/03/13 02:14:13;;;;;;;14.13;8.33;;;11.20;99.90;;;;;;5050771;28;20285;-75
2023/03/13 02:16:40;;;;;;;13.40;8.77;;;11.20;99.90;;;;;;5051354;28;20230;-75
2023/03/13 02:19:18;;;;;;;10.93;7.83;;;11.20;99.90;;;;;;5051231;28;20213;-74
2023/03/13 02:21:52;;;;;;;12.03;7.23;;;11.20;99.90;;;;;;5050521;28;20210;-75
2023/03/13 02:24:29;;;;;;;14.33;7.83;;;11.30;99.90;;;;;;5050931;28;20288;-73
2023/03/13 02:26:57;;;;;;;11.77;7.53;;;11.30;99.90;;;;;;5050709;28;20276;-74
2023/03/13 02:29:25;;;;;;;13.00;7.50;;;11.30;99.90;;;;;;5051232;28;20236;-74
2023/03/13 02:31:53;;;;;;;11.87;8.47;;;11.30;99.90;;;;;;5053182;28;20317;-74
2023/03/13 02:34:30;;;;;;;13.73;9.33;;;11.30;99.90;;;;;;5053767;28;20284;-74
2023/03/13 02:36:59;;;;;;;20.97;8.93;;;11.30;99.90;;;;;;5054717;28;20202;-74
2023/03/13 02:39:28;;;;;;;20.70;10.40;;;11.30;99.90;;;;;;5054718;28;20204;-74
2023/03/13 02:41:57;;;;;;;20.17;11.13;;;11.30;99.90;;;;;;5053635;28;20618;-74
2023/03/13 02:44:25;;;;;;;16.63;8.93;;;11.30;99.90;;;;;;5054602;28;20300;-74
2023/03/13 02:46:52;;;;;;;19.23;9.40;;;11.30;99.90;;;;;;5054796;28;20289;-74
2023/03/13 02:49:27;;;;;;;15.50;9.50;;;11.20;99.90;;;;;;5053972;28;20289;-74
2023/03/13 02:51:56;;;;;;;17.73;9.57;;;11.20;99.90;;;;;;5054464;28;20382;-75
2023/03/13 02:54:27;;;;;;;19.87;9.30;;;11.20;99.90;;;;;;5053842;28;20220;-76
2023/03/13 02:56:58;;;;;;;29.73;10.53;;;11.20;99.90;;;;;;5054718;28;20197;-74
2023/03/13 02:59:25;;;;;;;25.00;10.10;;;11.20;99.90;;;;;;5054593;28;20202;-76
2023/03/13 03:01:53;;;;;;;20.63;9.63;;;11.20;99.90;;;;;;5053448;28;20764;-74
2023/03/13 03:04:21;;;;;;;25.80;10.23;;;11.20;99.90;;;;;;5053865;28;20285;-76
2023/03/13 03:06:49;;;;;;;24.30;10.07;;;11.10;99.90;;;;;;5054339;28;20194;-74
2023/03/13 03:09:16;;;;;;;25.13;10.47;;;11.10;99.90;;;;;;5053698;28;20223;-75
2023/03/13 03:11:43;;;;;;;24.17;9.07;;;11.10;99.90;;;;;;5053890;28;20317;-74
2023/03/13 03:14:12;;;;;;;25.13;10.40;;;11.10;99.90;;;;;;5054180;28;20646;-76
2023/03/13 03:16:39;;;;;;;26.20;8.90;;;11.10;99.90;;;;;;5053220;28;20224;-75
2023/03/13 03:19:07;;;;;;;26.70;9.73;;;11.10;99.90;;;;;;5053934;28;20289;-80
2023/03/13 03:21:34;;;;;;;23.47;8.20;;;11.10;99.90;;;;;;5053723;28;20205;-76
2023/03/13 03:24:01;;;;;;;18.57;8.33;;;11.10;99.90;;;;;;5053725;28;20294;-75
2023/03/13 03:26:28;;;;;;;20.03;7.00;;;11.00;99.90;;;;;;5054037;28;20762;-74
2023/03/13 03:28:55;;;;;;;20.60;6.80;;;11.10;99.90;;;;;;5054013;28;20281;-75
2023/03/13 03:31:23;;;;;;;20.80;6.43;;;11.00;99.90;;;;;;5053050;28;20518;-76
2023/03/13 03:33:50;;;;;;;18.77;6.80;;;11.10;99.90;;;;;;5053570;28;20332;-82
2023/03/13 03:36:20;;;;;;;18.40;6.00;;;11.10;99.90;;;;;;5053588;28;20221;-81
2023/03/13 03:38:48;;;;;;;23.97;8.00;;;11.10;99.90;;;;;;5052475;28;20198;-75
2023/03/13 03:41:15;;;;;;;20.90;6.77;;;11.10;99.90;;;;;;5053564;28;20201;-74
2023/03/13 03:43:42;;;;;;;27.57;6.57;;;11.20;99.90;;;;;;5052224;28;20198;-76
2023/03/13 03:46:10;;;;;;;18.83;5.57;;;11.20;99.90;;;;;;5053254;28;20286;-74
2023/03/13 03:48:38;;;;;;;24.03;6.77;;;11.20;99.90;;;;;;5053444;28;20285;-75
2023/03/13 03:51:06;;;;;;;23.83;7.20;;;11.20;99.90;;;;;;5062970;28;20221;-74
2023/03/13 03:53:32;;;;;;;23.03;6.73;;;11.20;99.90;;;;;;5073952;28;20481;-80
2023/03/13 03:56:00;;;;;;;19.07;6.50;;;11.20;99.90;;;;;;5074414;28;20292;-86
2023/03/13 03:58:26;;;;;;;22.43;7.77;;;11.20;99.90;;;;;;5070046;28;20827;-84
2023/03/13 04:00:56;;;;;;;21.27;6.33;;;11.20;99.90;;;;;;5054688;28;20293;-79
2023/03/13 04:03:23;;;;;;;24.53;7.93;;;11.20;99.90;;;;;;5054688;28;20288;-81
2023/03/13 04:05:52;;;;;;;23.97;7.33;;;11.20;99.90;;;;;;5054021;28;20201;-82
2023/03/13 04:08:19;;;;;;;26.47;7.77;;;11.20;99.90;;;;;;5054666;28;20253;-82
2023/03/13 04:10:46;;;;;;;26.57;7.30;;;11.20;99.90;;;;;;5053872;28;20701;-79
2023/03/13 04:13:13;;;;;;;28.70;8.53;;;11.20;99.90;;;;;;5053581;28;20260;-79
2023/03/13 04:15:40;;;;;;;24.30;8.20;;;11.20;99.90;;;;;;5053395;28;20289;-82
2023/03/13 04:18:08;;;;;;;26.17;7.80;;;11.20;99.90;;;;;;5053732;28;20285;-79
2023/03/13 04:20:35;;;;;;;28.77;9.17;;;11.20;99.90;;;;;;5052910;28;20236;-79
2023/03/13 04:23:04;;;;;;;28.43;7.63;;;11.20;99.90;;;;;;5057498;28;20202;-82
2023/03/13 04:25:30;;;;;;;28.40;7.43;;;11.20;99.90;;;;;;5073591;28;20292;-81
2023/03/13 04:27:57;;;;;;;25.93;8.30;;;11.20;99.90;;;;;;5072938;28;20225;-79
2023/03/13 04:30:24;;;;;;;26.13;7.23;;;11.30;99.90;;;;;;5072391;28;20552;-79
2023/03/13 04:32:51;;;;;;;23.27;7.10;;;11.30;99.90;;;;;;5052751;28;20220;-79
2023/03/13 04:35:18;;;;;;;28.50;8.53;;;11.30;99.90;;;;;;5053068;28;20321;-82
2023/03/13 04:37:45;;;;;;;21.83;6.90;;;11.20;99.90;;;;;;5053018;28;20621;-79
2023/03/13 04:40:14;;;;;;;24.60;7.67;;;11.20;99.90;;;;;;5052163;28;20198;-80
2023/03/13 04:42:41;;;;;;;25.00;8.77;;;11.20;99.90;;;;;;5053032;28;20288;-81
2023/03/13 04:45:10;;;;;;;21.20;7.37;;;11.30;99.90;;;;;;5052420;28;20202;-80
2023/03/13 04:47:37;;;;;;;20.50;8.13;;;11.30;99.90;;;;;;5052399;28;20293;-79
2023/03/13 04:50:05;;;;;;;24.27;8.30;;;11.30;99.90;;;;;;5053130;28;20204;-80
2023/03/13 04:52:32;;;;;;;27.63;7.57;;;11.30;99.90;;;;;;5052673;28;20304;-82
2023/03/13 04:54:59;;;;;;;17.57;6.77;;;11.30;99.90;;;;;;5061593;28;20201;-81
2023/03/13 04:57:27;;;;;;;22.97;7.77;;;11.40;99.90;;;;;;5072436;28;20293;-81
2023/03/13 04:59:54;;;;;;;22.40;7.60;;;11.40;99.90;;;;;;5056956;28;20294;-79
2023/03/13 05:02:21;;;;;;;27.93;7.27;;;11.40;99.90;;;;;;5051814;28;20285;-81
2023/03/13 05:04:48;;;;;;;21.80;7.37;;;11.40;99.90;;;;;;5070128;28;20205;-82
2023/03/13 05:07:14;;;;;;;25.43;7.60;;;11.40;99.90;;;;;;5072199;28;20240;-80
2023/03/13 05:09:41;;;;;;;36.80;8.50;;;11.40;99.90;;;;;;5071374;28;20304;-77
2023/03/13 05:12:09;;;;;;;20.00;7.07;;;11.40;99.90;;;;;;5062632;28;20249;-76
2023/03/13 05:14:37;;;;;;;27.27;7.63;;;11.40;99.90;;;;;;5051856;28;20285;-74
2023/03/13 05:17:04;;;;;;;25.93;7.27;;;11.40;99.90;;;;;;5051242;28;20190;-76
2023/03/13 05:19:31;;;;;;;28.33;7.23;;;11.40;99.90;;;;;;5052720;28;20293;-76
2023/03/13 05:21:58;;;;;;;17.53;7.50;;;11.40;99.90;;;;;;5051939;28;20202;-74
2023/03/13 05:24:25;;;;;;;27.23;8.10;;;11.40;99.90;;;;;;5051134;28;20206;-77
2023/03/13 05:26:51;;;;;;;25.93;6.77;;;11.40;99.90;;;;;;5051954;28;20206;-76
2023/03/13 05:29:18;;;;;;;26.03;6.57;;;11.40;99.90;;;;;;5051183;28;20717;-74
2023/03/13 05:31:47;;;;;;;25.97;7.17;;;11.40;99.90;;;;;;5051478;28;20224;-77
2023/03/13 05:34:14;;;;;;;30.00;7.37;;;11.40;99.90;;;;;;5051873;28;20312;-77
2023/03/13 05:36:40;;;;;;;30.03;8.17;;;11.40;99.90;;;;;;5051212;28;20321;-76
2023/03/13 05:39:07;;;;;;;21.70;6.07;;;11.40;99.90;;;;;;5051967;28;20202;-76
2023/03/13 05:41:34;;;;;;;24.07;7.23;;;11.30;99.90;;;;;;5051623;28;20614;-77
2023/03/13 05:44:01;;;;;;;26.60;6.70;;;11.30;99.90;;;;;;5050987;28;20198;-77
2023/03/13 05:46:28;;;;;;;18.23;6.00;;;11.30;99.90;;;;;;5051435;28;20236;-76
2023/03/13 05:48:56;;;;;;;20.57;6.50;;;11.30;99.90;;;;;;5051866;28;20230;-76
2023/03/13 05:51:23;;;;;;;17.93;6.53;;;11.40;99.90;;;;;;5051194;28;20321;-77
2023/03/13 05:53:50;;;;;;;20.50;6.67;;;11.40;99.90;;;;;;5051378;28;20618;-79
2023/03/13 05:56:17;;;;;;;29.07;7.10;;;11.40;99.90;;;;;;5051775;28;20260;-81
2023/03/13 05:58:44;;;;;;;28.33;6.77;;;11.40;99.90;;;;;;5050960;28;20669;-75
2023/03/13 06:01:12;;;;;;;25.47;7.00;;;11.40;99.90;;;;;;5052307;28;20236;-79
2023/03/13 06:03:39;;;;;;;25.83;6.90;;;11.40;99.90;;;;;;5051650;28;20240;-77
2023/03/13 06:06:08;;;;;;;25.70;6.40;;;11.40;99.90;;;;;;5052468;28;20202;-80
2023/03/13 06:08:35;;;;;;;26.87;7.50;;;11.30;99.90;;;;;;5055747;28;20583;-79
2023/03/13 06:11:03;;;;;;;23.00;6.50;;;11.40;99.90;;;;;;5055416;28;20243;-79
2023/03/13 06:13:30;;;;;;;36.37;7.80;;;11.40;99.90;;;;;;5054772;28;20189;-80
2023/03/13 06:15:58;;;;;;;25.70;6.20;;;11.40;99.90;;;;;;5055835;28;20279;-82
2023/03/13 06:18:25;;;;;;;25.97;6.67;;;11.40;99.90;;;;;;5055437;28;20288;-78
2023/03/13 06:20:57;;;;;;;23.47;6.90;;;11.40;99.90;;;;;;5055016;28;20286;-77
2023/03/13 06:23:25;;;;;;;25.83;6.87;;;11.40;99.90;;;;;;5056238;28;20186;-80
2023/03/13 06:25:52;;;;;;;27.13;6.53;;;11.40;99.90;;;;;;5055064;28;20284;-80
2023/03/13 06:28:19;;;;;;;31.40;6.80;;;11.40;99.90;;;;;;5055595;28;20282;-78
2023/03/13 06:30:46;;;;;;;36.40;9.13;;;11.40;99.90;;;;;;5055694;28;20325;-81
2023/03/13 06:33:13;;;;;;;23.60;7.37;;;11.40;99.90;;;;;;5054613;28;20317;-78
2023/03/13 06:35:41;;;;;;;24.20;7.57;;;11.40;99.90;;;;;;5055355;28;20201;-80
2023/03/13 06:38:09;;;;;;;31.20;7.30;;;11.40;99.90;;;;;;5055040;28;20209;-79
2023/03/13 06:40:38;;;;;;;24.53;6.73;;;11.40;99.90;;;;;;5053667;28;20289;-81
2023/03/13 06:43:05;;;;;;;21.10;6.10;;;11.30;99.90;;;;;;5054609;28;20205;-76
2023/03/13 06:45:31;;;;;;;29.03;6.97;;;11.30;99.90;;;;;;5054866;28;20298;-75
2023/03/13 06:47:58;;;;;;;23.13;6.53;;;11.30;99.90;;;;;;5053654;28;20289;-76
2023/03/13 06:50:25;;;;;;;22.10;7.33;;;11.30;99.90;;;;;;5054683;28;20357;-76
2023/03/13 06:52:52;;;;;;;27.77;7.40;;;11.30;99.90;;;;;;5054753;28;20253;-78
2023/03/13 06:55:19;;;;;;;27.53;8.07;;;11.30;99.90;;;;;;5054089;28;20202;-79
2023/03/13 06:57:51;;;;;;;24.43;7.27;;;11.30;99.90;;;;;;5054524;28;20209;-80
2023/03/13 07:00:19;;;;;;;26.03;6.30;;;11.30;99.90;;;;;;5054784;28;20244;-76
2023/03/13 07:02:46;;;;;;;31.07;7.87;;;11.30;99.90;;;;;;5053626;28;20209;-77
2023/03/13 07:05:13;;;;;;;23.83;6.60;;;11.30;99.90;;;;;;5054500;28;20652;-76
2023/03/13 07:07:40;;;;;;;24.43;7.00;;;11.30;99.90;;;;;;5053390;28;20590;-78
2023/03/13 07:10:09;;;;;;;24.23;6.53;;;11.30;99.90;;;;;;5054110;28;20212;-75
2023/03/13 07:12:36;;;;;;;23.03;7.87;;;11.30;99.90;;;;;;5054240;28;20253;-75
2023/03/13 07:15:05;;;;;;;31.13;8.27;;;11.30;99.90;;;;;;5053140;28;20233;-75
2023/03/13 07:17:32;;;;;;;22.80;7.23;;;11.30;99.90;;;;;;5052959;28;20215;-74
2023/03/13 07:19:59;;;;;;;33.90;9.10;;;11.40;99.90;;;;;;5054040;28;20198;-75
2023/03/13 07:22:25;;;;;;;27.80;6.47;;;11.40;99.90;;;;;;5053966;28;20283;-75
2023/03/13 07:24:52;;;;;;;21.77;6.97;;;11.40;99.90;;;;;;5054354;28;20285;-77
2023/03/13 07:27:21;;;;;;;31.13;7.43;;;11.30;99.90;;;;;;5056684;28;20189;-77
2023/03/13 07:29:48;;;;;;;29.13;6.40;;;11.40;99.90;;;;;;5053259;28;20217;-75
2023/03/13 07:32:16;;;;;;;25.83;7.20;;;11.30;99.90;;;;;;5053584;28;20313;-78
2023/03/13 07:34:43;;;;;;;25.97;6.37;;;11.30;99.90;;;;;;5061538;28;20320;-76
2023/03/13 07:37:11;;;;;;;26.03;5.90;;;11.30;99.90;;;;;;5068362;28;20201;-74
2023/03/13 07:39:38;;;;;;;21.40;6.10;;;11.40;99.90;;;;;;5065389;28;20272;-77
2023/03/13 07:42:05;;;;;;;22.63;6.70;;;11.40;99.90;;;;;;5073493;28;20280;-77
2023/03/13 07:44:32;;;;;;;22.33;6.27;;;11.40;99.90;;;;;;5054805;28;20206;-76
2023/03/13 07:47:00;;;;;;;23.87;6.87;;;11.40;99.90;;;;;;5053563;28;20288;-77
2023/03/13 07:49:28;;;;;;;21.70;6.40;;;11.40;99.90;;;;;;5056274;28;20202;-79
2023/03/13 07:51:56;;;;;;;22.87;5.57;;;11.40;99.90;;;;;;5073971;28;20232;-76
2023/03/13 07:54:23;;;;;;;30.83;6.70;;;11.40;99.90;;;;;;5053562;28;20288;-79
2023/03/13 07:56:50;;;;;;;26.57;6.40;;;11.50;99.90;;;;;;5031357;28;20494;-77
2023/03/13 07:59:17;;;;;;;22.77;6.27;;;11.50;99.90;;;;;;5076530;28;20213;-76
2023/03/13 08:01:44;;;;;;;26.37;8.37;;;11.50;99.90;;;;;;5072807;28;20193;-76
2023/03/13 08:04:13;;;;;;;30.07;7.40;;;11.50;99.90;;;;;;5072378;28;20213;-75
2023/03/13 08:06:42;;;;;;;23.90;5.80;;;11.50;99.90;;;;;;5062562;28;20204;-79
2023/03/13 08:09:09;;;;;;;26.53;7.03;;;11.60;99.90;;;;;;5067247;28;20305;-77
2023/03/13 08:11:36;;;;;;;27.13;6.80;;;11.70;99.90;;;;;;5064354;28;20265;-76
2023/03/13 08:14:03;;;;;;;23.00;6.27;;;11.70;99.90;;;;;;5052950;28;20221;-78
2023/03/13 08:16:32;;;;;;;24.17;6.10;;;11.70;99.90;;;;;;5071587;28;20200;-76
2023/03/13 08:19:03;;;;;;;24.20;6.10;;;11.70;99.90;;;;;;5057695;28;20245;-77
2023/03/13 08:21:31;;;;;;;22.27;5.90;;;11.70;99.90;;;;;;5057860;28;20196;-75
2023/03/13 08:24:04;;;;;;;25.23;7.33;;;11.80;99.90;;;;;;5077007;28;20203;-75
2023/03/13 08:26:32;;;;;;;25.20;6.43;;;11.80;99.90;;;;;;5067385;28;20208;-74
2023/03/13 08:29:02;;;;;;;27.03;6.37;;;11.80;99.90;;;;;;5068518;28;20194;-74
2023/03/13 08:31:31;;;;;;;20.03;5.57;;;11.90;99.90;;;;;;5076440;28;20207;-76
2023/03/13 08:33:58;;;;;;;24.83;5.80;;;11.90;99.90;;;;;;5083103;28;20229;-74
2023/03/13 08:36:27;;;;;;;24.73;6.10;;;11.90;99.90;;;;;;5064956;28;20197;-74
2023/03/13 08:38:55;;;;;;;21.57;5.93;;;11.90;99.90;;;;;;5067667;28;20505;-75
2023/03/13 08:41:35;;;;;;;22.13;5.43;;;11.90;99.90;;;;;;5061676;28;20585;-75
2023/03/13 08:44:02;;;;;;;21.63;5.23;;;12.00;99.90;;;;;;5080933;28;20339;-75
2023/03/13 08:46:30;;;;;;;18.87;5.37;;;12.10;99.90;;;;;;5075020;28;20236;-74
2023/03/13 08:48:58;;;;;;;24.20;5.37;;;12.20;99.90;;;;;;5061977;28;20202;-76
2023/03/13 08:51:26;;;;;;;22.77;5.43;;;12.20;99.90;;;;;;5060322;28;20202;-74
2023/03/13 08:53:55;;;;;;;16.77;5.53;;;12.20;99.90;;;;;;5059606;28;20328;-77
2023/03/13 08:56:26;;;;;;;25.57;6.60;;;12.20;99.90;;;;;;5054731;28;20208;-76
2023/03/13 08:58:55;;;;;;;21.53;6.13;;;12.20;99.90;;;;;;5051884;28;20281;-76
2023/03/13 09:01:24;;;;;;;27.37;5.90;;;12.20;99.90;;;;;;5051394;28;20194;-75
2023/03/13 09:03:51;;;;;;;22.90;5.83;;;12.30;99.90;;;;;;5051747;28;20252;-76
2023/03/13 09:06:18;;;;;;;26.67;6.00;;;12.30;99.90;;;;;;5052387;28;20233;-76
2023/03/13 09:08:45;;;;;;;31.80;6.67;;;12.40;99.90;;;;;;5070580;28;20526;-75
2023/03/13 09:11:14;;;;;;;28.87;6.90;;;12.40;99.90;;;;;;5070928;28;20284;-77
2023/03/13 09:13:44;;;;;;;26.10;6.37;;;12.40;99.90;;;;;;5070482;28;20304;-76
2023/03/13 09:16:13;;;;;;;29.43;6.83;;;12.40;99.90;;;;;;5065418;28;20297;-75
2023/03/13 09:18:40;;;;;;;27.13;5.80;;;12.40;99.90;;;;;;5050716;28;20281;-75
2023/03/13 09:21:08;;;;;;;25.30;5.70;;;12.30;99.90;;;;;;5050860;28;20206;-76
2023/03/13 09:23:36;;;;;;;27.27;7.13;;;12.40;99.90;;;;;;5050668;28;20245;-76
2023/03/13 09:26:03;;;;;;;25.03;5.93;;;12.40;99.90;;;;;;5051691;28;20764;-77
2023/03/13 09:28:30;;;;;;;30.27;6.87;;;12.40;99.90;;;;;;5050921;28;20670;-80
2023/03/13 09:31:06;;;;;;;28.87;6.60;;;12.40;99.90;;;;;;5051750;28;20200;-76
2023/03/13 09:33:33;;;;;;;29.20;6.70;;;12.50;99.90;;;;;;5051214;28;20352;-77
2023/03/13 09:36:00;;;;;;;37.33;6.80;;;12.60;99.90;;;;;;5050981;28;20225;-77
2023/03/13 09:38:27;;;;;;;33.07;7.37;;;12.60;99.90;;;;;;5051593;28;20539;-76
2023/03/13 09:40:55;;;;;;;24.07;6.33;;;12.70;99.90;;;;;;5052405;28;20610;-75
2023/03/13 09:43:32;;;;;;;30.17;7.57;;;12.70;99.90;;;;;;5054986;28;20292;-76
2023/03/13 09:46:04;;;;;;;26.80;6.87;;;12.80;99.90;;;;;;5055460;28;20214;-76
2023/03/13 09:48:33;;;;;;;24.00;5.30;;;12.80;99.90;;;;;;5055633;28;20716;-77
2023/03/13 09:51:05;;;;;;;27.13;6.93;;;12.90;99.90;;;;;;5055046;28;20756;-75
2023/03/13 09:53:41;;;;;;;30.27;8.47;;;13.00;99.90;;;;;;5055382;28;20244;-77
2023/03/13 09:56:16;;;;;;;23.50;5.87;;;13.10;99.90;;;;;;5055555;28;20479;-79
2023/03/13 09:58:50;;;;;;;26.70;7.43;;;13.20;99.90;;;;;;5056005;28;20204;-80
2023/03/13 10:01:24;;;;;;;28.80;6.83;;;13.20;99.90;;;;;;5056264;28;20767;-76
2023/03/13 10:04:00;;;;;;;29.60;7.40;;;13.30;99.90;;;;;;5058985;28;20229;-80
2023/03/13 10:06:33;;;;;;;25.27;7.20;;;13.50;99.90;;;;;;5075947;28;20219;-77
2023/03/13 10:09:00;;;;;;;23.60;6.07;;;13.50;99.90;;;;;;5074468;28;20312;-80
2023/03/13 10:11:31;;;;;;;24.97;6.27;;;13.70;99.90;;;;;;5074515;28;20601;-81
2023/03/13 10:14:05;;;;;;;20.70;6.10;;;13.70;99.90;;;;;;5073019;28;20221;-81
2023/03/13 10:16:42;;;;;;;30.27;6.47;;;13.80;99.90;;;;;;5055215;28;20305;-79
2023/03/13 10:19:13;;;;;;;28.40;6.17;;;13.80;99.90;;;;;;5055528;28;20225;-78
2023/03/13 10:21:43;;;;;;;25.27;5.67;;;13.80;99.90;;;;;;5055456;28;20225;-83
2023/03/13 10:24:18;;;;;;;25.97;5.83;;;13.90;99.90;;;;;;5054953;28;20505;-82
2023/03/13 10:26:45;;;;;;;22.10;4.77;;;14.00;99.90;;;;;;5055299;28;20297;-79
2023/03/13 10:29:23;;;;;;;20.00;5.00;;;14.10;99.90;;;;;;5055128;28;20602;-78
2023/03/13 10:31:57;;;;;;;22.17;5.33;;;14.20;99.90;;;;;;5055350;28;20512;-80
2023/03/13 10:34:25;;;;;;;19.20;4.83;;;14.20;99.90;;;;;;5054633;28;20244;-80
2023/03/13 10:36:56;;;;;;;20.23;5.77;;;14.30;99.90;;;;;;5055072;28;20697;-81
2023/03/13 10:39:25;;;;;;;22.93;5.43;;;14.30;99.90;;;;;;5054241;28;20202;-79
2023/03/13 10:41:57;;;;;;;20.90;4.57;;;14.40;99.90;;;;;;5055251;28;20206;-78
2023/03/13 10:44:30;;;;;;;18.80;4.80;;;14.30;99.90;;;;;;5054447;28;20281;-77
2023/03/13 10:47:01;;;;;;;17.47;4.60;;;14.40;99.90;;;;;;5053973;28;20571;-77
2023/03/13 10:49:29;;;;;;;22.83;5.10;;;14.50;99.90;;;;;;5054246;28;20579;-82
2023/03/13 10:52:00;;;;;;;24.27;5.50;;;14.50;99.90;;;;;;5054487;28;20296;-81
2023/03/13 10:54:29;;;;;;;28.13;6.60;;;14.60;99.90;;;;;;5052680;28;20610;-79
2023/03/13 10:57:11;;;;;;;22.20;5.40;;;14.60;99.90;;;;;;5055116;28;20455;-82
2023/03/13 10:59:41;;;;;;;18.77;5.33;;;14.50;99.90;;;;;;5055198;28;20649;-80
2023/03/13 11:02:22;;;;;;;22.70;5.80;;;14.50;99.90;;;;;;5054518;28;20221;-83
2023/03/13 11:04:52;;;;;;;26.27;5.17;;;14.50;99.90;;;;;;5054591;28;20198;-77
2023/03/13 11:07:25;;;;;;;21.60;6.00;;;14.60;99.90;;;;;;5054313;28;20190;-82
2023/03/13 11:09:59;;;;;;;27.03;6.60;;;14.60;99.90;;;;;;5054638;28;20312;-80
2023/03/13 11:12:27;;;;;;;27.87;6.90;;;14.60;99.90;;;;;;5054175;28;20576;-82
2023/03/13 11:14:58;;;;;;;26.13;6.07;;;14.70;99.90;;;;;;5054169;28;20209;-82
2023/03/13 11:17:34;;;;;;;26.03;6.73;;;14.70;99.90;;;;;;5054301;28;20320;-81
2023/03/13 11:20:19;;;;;;;26.93;7.33;;;14.60;99.90;;;;;;5054623;28;20288;-78
2023/03/13 11:22:56;;;;;;;32.43;6.87;;;14.60;99.90;;;;;;5053335;28;20352;-80
2023/03/13 11:25:32;;;;;;;26.40;6.87;;;14.60;99.90;;;;;;5054222;28;20597;-78
2023/03/13 11:28:14;;;;;;;32.13;6.80;;;14.50;99.90;;;;;;5073561;28;20197;-83
2023/03/13 11:30:50;;;;;;;31.93;6.93;;;14.50;99.90;;;;;;5074138;28;20664;-79
2023/03/13 11:33:31;;;;;;;26.57;6.67;;;14.50;99.90;;;;;;5056582;28;20293;-81
2023/03/13 11:36:02;;;;;;;27.30;6.33;;;14.40;99.90;;;;;;5053632;28;20317;-80
2023/03/13 11:38:35;;;;;;;30.37;7.07;;;14.50;99.90;;;;;;5062352;28;20201;-81
2023/03/13 11:41:10;;;;;;;31.37;6.83;;;14.70;99.90;;;;;;5073723;28;20298;-77
2023/03/13 11:43:50;;;;;;;28.63;6.80;;;14.70;99.90;;;;;;5073582;28;20187;-79
2023/03/13 11:46:44;;;;;;;22.40;5.57;;;14.60;99.90;;;;;;5063560;28;20661;-77
2023/03/13 11:49:48;;;;;;;21.20;6.37;;;14.70;99.90;;;;;;5053238;28;20789;-80
2023/03/13 11:52:31;;;;;;;29.17;6.60;;;14.80;99.90;;;;;;5020000;28;20292;-77
2023/03/13 11:55:14;;;;;;;29.93;7.17;;;14.80;99.90;;;;;;5053926;28;20206;-77
2023/03/13 11:57:47;;;;;;;29.17;7.60;;;14.90;99.90;;;;;;5052462;28;20335;-76
2023/03/13 12:00:23;;;;;;;29.77;7.03;;;14.80;99.90;;;;;;5053564;28;20482;-81
2023/03/13 12:02:54;;;;;;;27.37;6.87;;;14.90;99.90;;;;;;5053295;28;20186;-78
2023/03/13 12:05:25;;;;;;;26.70;6.57;;;15.10;99.90;;;;;;5052128;28;20481;-79
2023/03/13 12:07:58;;;;;;;25.73;6.30;;;15.10;99.90;;;;;;5053462;28;20301;-82
2023/03/13 12:10:30;;;;;;;33.37;7.83;;;15.20;99.90;;;;;;5052461;28;20494;-77
2023/03/13 12:13:04;;;;;;;30.60;7.10;;;15.20;99.90;;;;;;5053410;28;20217;-77
2023/03/13 12:15:37;;;;;;;35.73;8.60;;;15.20;99.90;;;;;;5053413;28;20277;-79
2023/03/13 12:18:09;;;;;;;29.43;7.17;;;15.20;99.90;;;;;;5053174;28;20284;-79
2023/03/13 12:20:43;;;;;;;27.17;6.70;;;15.30;99.90;;;;;;5052997;28;20218;-79
2023/03/13 12:23:23;;;;;;;39.47;7.97;;;15.30;99.90;;;;;;5053279;28;20193;-82
2023/03/13 12:25:54;;;;;;;32.43;7.47;;;15.30;99.90;;;;;;5052592;28;20198;-78
2023/03/13 12:28:29;;;;;;;40.60;7.80;;;15.30;99.90;;;;;;5052944;28;20284;-77
2023/03/13 12:31:18;;;;;;;35.42;7.97;;;15.20;99.90;;;;;;5052914;28;20283;-78
2023/03/13 12:33:52;;;;;;;25.00;6.47;;;15.10;99.90;;;;;;5052843;28;20619;-78
2023/03/13 12:36:28;;;;;;;33.80;8.83;;;15.10;99.90;;;;;;5053593;28;20210;-78
2023/03/13 12:38:58;;;;;;;43.38;7.20;;;15.10;99.90;;;;;;5052108;28;20204;-79
2023/03/13 12:41:31;;;;;;;32.10;7.03;;;15.10;99.90;;;;;;5052707;28;20656;-79
2023/03/13 12:43:58;;;;;;;28.80;6.60;;;15.10;99.90;;;;;;5053167;28;20213;-79
2023/03/13 12:46:36;;;;;;;30.40;8.00;;;15.10;99.90;;;;;;5051877;28;20238;-80
2023/03/13 12:49:32;;;;;;;32.07;7.00;;;15.10;99.90;;;;;;5052917;28;20736;-77